FIN weather

Flagler Executive Airport
Palm Coast, Florida, United States

Public forecast

Using degrees Fahrenheit for public forecast. Weather courtesy of forecast.io.

METAR (pilot weather report)

Retrieved 2019/06/20 21:50 UTC (57 minutes ago):

KFIN 202150Z 25005KT 7SM SCT047 SCT055 33/24 A2994

TAF (pilot weather forecast)

Closest forecast is Daytona Beach International Airport, 18.9 nm (35.0 km) SSE. Retrieved 2019/06/20 18:30 UTC (4 hours ago):

TAF KDAB 201728Z 2018/2118 24012G21KT P6SM SCT040 SCT200 FM210200 22008KT P6SM FEW030 SCT250 FM211400 25011KT P6SM SCT030 SCT250